sensor_id;sensor_type;location;lat;lon;timestamp;P1;durP1;ratioP1;P2;durP2;ratioP2
69736;SDS011;64476;55.004;73.342;2023-05-20T00:01:25;7.50;;;4.75;;
69736;SDS011;64476;55.004;73.342;2023-05-20T00:04:27;12.57;;;6.19;;
69736;SDS011;64476;55.004;73.342;2023-05-20T00:07:29;11.18;;;5.05;;
69736;SDS011;64476;55.004;73.342;2023-05-20T00:10:32;19.30;;;5.27;;
69736;SDS011;64476;55.004;73.342;2023-05-20T00:13:33;24.95;;;5.68;;
69736;SDS011;64476;55.004;73.342;2023-05-20T00:16:36;20.50;;;4.93;;
69736;SDS011;64476;55.004;73.342;2023-05-20T00:23:12;26.98;;;6.55;;
69736;SDS011;64476;55.004;73.342;2023-05-20T00:26:51;13.20;;;5.15;;
69736;SDS011;64476;55.004;73.342;2023-05-20T00:29:57;13.32;;;4.65;;
69736;SDS011;64476;55.004;73.342;2023-05-20T00:32:59;11.38;;;5.57;;
69736;SDS011;64476;55.004;73.342;2023-05-20T00:36:01;15.20;;;5.15;;
69736;SDS011;64476;55.004;73.342;2023-05-20T00:39:03;11.35;;;5.43;;
69736;SDS011;64476;55.004;73.342;2023-05-20T00:42:04;25.17;;;6.78;;
69736;SDS011;64476;55.004;73.342;2023-05-20T00:45:06;14.63;;;5.97;;
69736;SDS011;64476;55.004;73.342;2023-05-20T00:48:09;9.77;;;5.13;;
69736;SDS011;64476;55.004;73.342;2023-05-20T00:51:11;28.50;;;6.53;;
69736;SDS011;64476;55.004;73.342;2023-05-20T00:54:45;24.60;;;5.17;;
69736;SDS011;64476;55.004;73.342;2023-05-20T00:57:48;22.75;;;4.63;;
69736;SDS011;64476;55.004;73.342;2023-05-20T01:00:50;13.82;;;4.65;;
69736;SDS011;64476;55.004;73.342;2023-05-20T01:03:54;12.85;;;5.38;;
69736;SDS011;64476;55.004;73.342;2023-05-20T01:07:01;15.32;;;5.40;;
69736;SDS011;64476;55.004;73.342;2023-05-20T01:10:05;26.38;;;5.35;;
69736;SDS011;64476;55.004;73.342;2023-05-20T01:13:08;17.17;;;5.30;;
69736;SDS011;64476;55.004;73.342;2023-05-20T01:23:04;21.20;;;5.47;;
69736;SDS011;64476;55.004;73.342;2023-05-20T01:26:13;15.90;;;4.93;;
69736;SDS011;64476;55.004;73.342;2023-05-20T01:29:23;18.22;;;7.08;;
69736;SDS011;64476;55.004;73.342;2023-05-20T01:33:01;12.43;;;4.78;;
69736;SDS011;64476;55.004;73.342;2023-05-20T01:36:07;8.82;;;4.60;;
69736;SDS011;64476;55.004;73.342;2023-05-20T01:39:10;24.60;;;13.82;;
69736;SDS011;64476;55.004;73.342;2023-05-20T01:42:12;18.63;;;5.28;;
69736;SDS011;64476;55.004;73.342;2023-05-20T01:45:16;11.27;;;5.53;;
69736;SDS011;64476;55.004;73.342;2023-05-20T01:48:22;24.85;;;6.45;;
69736;SDS011;64476;55.004;73.342;2023-05-20T01:51:24;45.78;;;8.10;;
69736;SDS011;64476;55.004;73.342;2023-05-20T01:54:25;26.75;;;7.28;;
69736;SDS011;64476;55.004;73.342;2023-05-20T01:57:27;29.17;;;7.35;;
69736;SDS011;64476;55.004;73.342;2023-05-20T02:00:31;13.80;;;6.00;;
69736;SDS011;64476;55.004;73.342;2023-05-20T02:03:34;12.98;;;5.50;;
69736;SDS011;64476;55.004;73.342;2023-05-20T02:06:36;25.00;;;5.80;;
69736;SDS011;64476;55.004;73.342;2023-05-20T02:09:37;16.73;;;5.13;;
69736;SDS011;64476;55.004;73.342;2023-05-20T02:12:39;20.90;;;9.73;;
69736;SDS011;64476;55.004;73.342;2023-05-20T02:15:41;28.33;;;6.32;;
69736;SDS011;64476;55.004;73.342;2023-05-20T02:18:43;29.80;;;6.55;;
69736;SDS011;64476;55.004;73.342;2023-05-20T02:21:50;20.48;;;5.95;;
69736;SDS011;64476;55.004;73.342;2023-05-20T02:24:54;34.33;;;6.97;;
69736;SDS011;64476;55.004;73.342;2023-05-20T02:27:56;26.90;;;6.60;;
69736;SDS011;64476;55.004;73.342;2023-05-20T02:30:57;25.55;;;6.63;;
69736;SDS011;64476;55.004;73.342;2023-05-20T02:33:59;39.75;;;6.43;;
69736;SDS011;64476;55.004;73.342;2023-05-20T02:37:02;41.90;;;7.03;;
69736;SDS011;64476;55.004;73.342;2023-05-20T02:40:05;23.25;;;6.55;;
69736;SDS011;64476;55.004;73.342;2023-05-20T02:43:13;40.30;;;7.40;;
69736;SDS011;64476;55.004;73.342;2023-05-20T02:46:15;45.35;;;7.22;;
69736;SDS011;64476;55.004;73.342;2023-05-20T02:49:22;40.97;;;8.15;;
69736;SDS011;64476;55.004;73.342;2023-05-20T02:52:25;24.60;;;6.53;;
69736;SDS011;64476;55.004;73.342;2023-05-20T02:55:26;17.95;;;5.88;;
69736;SDS011;64476;55.004;73.342;2023-05-20T02:58:30;33.03;;;7.10;;
69736;SDS011;64476;55.004;73.342;2023-05-20T03:01:33;19.55;;;6.10;;
69736;SDS011;64476;55.004;73.342;2023-05-20T03:04:36;27.48;;;6.55;;
69736;SDS011;64476;55.004;73.342;2023-05-20T03:07:38;29.77;;;6.03;;
69736;SDS011;64476;55.004;73.342;2023-05-20T03:10:40;95.07;;;12.27;;
69736;SDS011;64476;55.004;73.342;2023-05-20T03:13:42;54.30;;;10.15;;
69736;SDS011;64476;55.004;73.342;2023-05-20T03:16:44;60.67;;;11.07;;
69736;SDS011;64476;55.004;73.342;2023-05-20T03:19:48;75.30;;;12.63;;
69736;SDS011;64476;55.004;73.342;2023-05-20T03:22:52;42.22;;;9.50;;
69736;SDS011;64476;55.004;73.342;2023-05-20T03:25:57;61.57;;;11.40;;
69736;SDS011;64476;55.004;73.342;2023-05-20T03:28:59;70.93;;;12.48;;
69736;SDS011;64476;55.004;73.342;2023-05-20T03:32:01;58.28;;;11.30;;
69736;SDS011;64476;55.004;73.342;2023-05-20T03:35:05;78.83;;;13.73;;
69736;SDS011;64476;55.004;73.342;2023-05-20T03:38:07;104.28;;;16.10;;
69736;SDS011;64476;55.004;73.342;2023-05-20T03:41:11;99.38;;;16.27;;
69736;SDS011;64476;55.004;73.342;2023-05-20T03:44:44;69.73;;;14.27;;
69736;SDS011;64476;55.004;73.342;2023-05-20T03:47:57;86.72;;;15.65;;
69736;SDS011;64476;55.004;73.342;2023-05-20T03:50:59;71.47;;;12.55;;
69736;SDS011;64476;55.004;73.342;2023-05-20T03:54:02;74.57;;;13.35;;
69736;SDS011;64476;55.004;73.342;2023-05-20T03:57:04;82.97;;;15.00;;
69736;SDS011;64476;55.004;73.342;2023-05-20T04:00:06;90.53;;;18.90;;
69736;SDS011;64476;55.004;73.342;2023-05-20T04:03:17;93.00;;;15.45;;
69736;SDS011;64476;55.004;73.342;2023-05-20T04:06:21;64.63;;;13.45;;
69736;SDS011;64476;55.004;73.342;2023-05-20T04:09:24;103.66;;;14.56;;
69736;SDS011;64476;55.004;73.342;2023-05-20T04:12:26;71.00;;;15.63;;
69736;SDS011;64476;55.004;73.342;2023-05-20T04:15:34;72.90;;;15.10;;
69736;SDS011;64476;55.004;73.342;2023-05-20T04:18:38;110.60;;;14.43;;
69736;SDS011;64476;55.004;73.342;2023-05-20T04:21:49;68.45;;;13.05;;
69736;SDS011;64476;55.004;73.342;2023-05-20T04:28:27;42.50;;;9.27;;
69736;SDS011;64476;55.004;73.342;2023-05-20T04:31:31;36.07;;;9.23;;
69736;SDS011;64476;55.004;73.342;2023-05-20T04:34:33;22.20;;;7.30;;
69736;SDS011;64476;55.004;73.342;2023-05-20T04:37:37;22.88;;;5.47;;
69736;SDS011;64476;55.004;73.342;2023-05-20T04:40:42;35.55;;;7.07;;
69736;SDS011;64476;55.004;73.342;2023-05-20T04:43:44;28.70;;;5.85;;
69736;SDS011;64476;55.004;73.342;2023-05-20T04:46:46;80.75;;;9.40;;
69736;SDS011;64476;55.004;73.342;2023-05-20T04:49:48;40.10;;;5.27;;
69736;SDS011;64476;55.004;73.342;2023-05-20T04:52:50;39.05;;;5.53;;
69736;SDS011;64476;55.004;73.342;2023-05-20T04:55:55;33.53;;;6.60;;
69736;SDS011;64476;55.004;73.342;2023-05-20T04:59:29;45.05;;;7.07;;
69736;SDS011;64476;55.004;73.342;2023-05-20T05:03:06;73.18;;;7.30;;
69736;SDS011;64476;55.004;73.342;2023-05-20T05:06:08;35.17;;;6.47;;
69736;SDS011;64476;55.004;73.342;2023-05-20T05:09:13;52.75;;;6.53;;
69736;SDS011;64476;55.004;73.342;2023-05-20T05:12:17;39.67;;;7.35;;
69736;SDS011;64476;55.004;73.342;2023-05-20T05:15:19;19.98;;;5.85;;
69736;SDS011;64476;55.004;73.342;2023-05-20T05:18:21;14.93;;;4.68;;
69736;SDS011;64476;55.004;73.342;2023-05-20T05:21:23;15.40;;;5.07;;
69736;SDS011;64476;55.004;73.342;2023-05-20T05:24:25;23.28;;;4.87;;
69736;SDS011;64476;55.004;73.342;2023-05-20T05:27:27;82.68;;;6.53;;
69736;SDS011;64476;55.004;73.342;2023-05-20T05:33:35;39.30;;;6.32;;
69736;SDS011;64476;55.004;73.342;2023-05-20T05:36:38;45.15;;;6.03;;
69736;SDS011;64476;55.004;73.342;2023-05-20T05:39:42;34.92;;;6.35;;
69736;SDS011;64476;55.004;73.342;2023-05-20T05:42:56;12.98;;;5.32;;
69736;SDS011;64476;55.004;73.342;2023-05-20T05:46:00;57.05;;;6.78;;
69736;SDS011;64476;55.004;73.342;2023-05-20T05:49:22;224.99;;;12.48;;
69736;SDS011;64476;55.004;73.342;2023-05-20T05:52:24;51.60;;;7.25;;
69736;SDS011;64476;55.004;73.342;2023-05-20T05:55:27;66.80;;;8.03;;
69736;SDS011;64476;55.004;73.342;2023-05-20T05:58:29;50.65;;;7.07;;
69736;SDS011;64476;55.004;73.342;2023-05-20T06:01:31;74.18;;;8.27;;
69736;SDS011;64476;55.004;73.342;2023-05-20T06:04:33;25.17;;;6.70;;
69736;SDS011;64476;55.004;73.342;2023-05-20T06:07:37;47.47;;;6.75;;
69736;SDS011;64476;55.004;73.342;2023-05-20T06:10:39;17.37;;;6.00;;
69736;SDS011;64476;55.004;73.342;2023-05-20T06:13:41;19.33;;;5.10;;
69736;SDS011;64476;55.004;73.342;2023-05-20T06:16:43;39.95;;;5.03;;
69736;SDS011;64476;55.004;73.342;2023-05-20T06:20:18;7.13;;;4.40;;
69736;SDS011;64476;55.004;73.342;2023-05-20T06:23:20;22.55;;;4.50;;
69736;SDS011;64476;55.004;73.342;2023-05-20T06:26:44;35.85;;;5.05;;
69736;SDS011;64476;55.004;73.342;2023-05-20T06:29:46;27.85;;;5.05;;
69736;SDS011;64476;55.004;73.342;2023-05-20T06:32:48;41.53;;;5.65;;
69736;SDS011;64476;55.004;73.342;2023-05-20T06:35:57;30.38;;;4.20;;
69736;SDS011;64476;55.004;73.342;2023-05-20T06:39:01;13.38;;;4.38;;
69736;SDS011;64476;55.004;73.342;2023-05-20T06:42:04;13.48;;;4.55;;
69736;SDS011;64476;55.004;73.342;2023-05-20T06:45:10;30.17;;;5.18;;
69736;SDS011;64476;55.004;73.342;2023-05-20T06:48:18;21.58;;;4.80;;
69736;SDS011;64476;55.004;73.342;2023-05-20T06:54:28;46.37;;;5.63;;
69736;SDS011;64476;55.004;73.342;2023-05-20T06:57:30;13.40;;;5.13;;
69736;SDS011;64476;55.004;73.342;2023-05-20T07:00:32;19.03;;;4.17;;
69736;SDS011;64476;55.004;73.342;2023-05-20T07:03:35;15.98;;;5.20;;
69736;SDS011;64476;55.004;73.342;2023-05-20T07:06:37;20.83;;;4.65;;
69736;SDS011;64476;55.004;73.342;2023-05-20T07:09:39;88.45;;;8.27;;
69736;SDS011;64476;55.004;73.342;2023-05-20T07:12:42;13.27;;;4.25;;
69736;SDS011;64476;55.004;73.342;2023-05-20T07:15:46;44.28;;;5.38;;
69736;SDS011;64476;55.004;73.342;2023-05-20T07:18:57;38.08;;;4.45;;
69736;SDS011;64476;55.004;73.342;2023-05-20T07:22:06;20.10;;;5.40;;
69736;SDS011;64476;55.004;73.342;2023-05-20T07:25:16;37.35;;;4.85;;
69736;SDS011;64476;55.004;73.342;2023-05-20T07:28:19;20.92;;;4.68;;
69736;SDS011;64476;55.004;73.342;2023-05-20T07:31:24;19.35;;;4.78;;
69736;SDS011;64476;55.004;73.342;2023-05-20T07:34:27;29.88;;;4.96;;
69736;SDS011;64476;55.004;73.342;2023-05-20T07:37:29;17.90;;;4.80;;
69736;SDS011;64476;55.004;73.342;2023-05-20T07:40:33;51.38;;;5.63;;
69736;SDS011;64476;55.004;73.342;2023-05-20T07:43:39;32.85;;;5.00;;
69736;SDS011;64476;55.004;73.342;2023-05-20T07:46:45;53.10;;;5.67;;
69736;SDS011;64476;55.004;73.342;2023-05-20T07:49:50;18.60;;;4.93;;
69736;SDS011;64476;55.004;73.342;2023-05-20T07:52:52;16.98;;;4.53;;
69736;SDS011;64476;55.004;73.342;2023-05-20T07:55:54;18.65;;;4.40;;
69736;SDS011;64476;55.004;73.342;2023-05-20T07:59:03;12.43;;;4.40;;
69736;SDS011;64476;55.004;73.342;2023-05-20T08:02:11;17.20;;;4.27;;
69736;SDS011;64476;55.004;73.342;2023-05-20T08:05:13;16.65;;;5.68;;
69736;SDS011;64476;55.004;73.342;2023-05-20T08:08:15;60.90;;;5.47;;
69736;SDS011;64476;55.004;73.342;2023-05-20T08:11:32;15.57;;;4.55;;
69736;SDS011;64476;55.004;73.342;2023-05-20T08:14:34;26.15;;;5.32;;
69736;SDS011;64476;55.004;73.342;2023-05-20T08:17:37;12.20;;;4.00;;
69736;SDS011;64476;55.004;73.342;2023-05-20T08:20:40;103.45;;;7.22;;
69736;SDS011;64476;55.004;73.342;2023-05-20T08:23:48;15.30;;;4.18;;
69736;SDS011;64476;55.004;73.342;2023-05-20T08:26:50;24.88;;;4.47;;
69736;SDS011;64476;55.004;73.342;2023-05-20T08:29:53;131.50;;;11.32;;
69736;SDS011;64476;55.004;73.342;2023-05-20T08:32:55;103.13;;;8.35;;
69736;SDS011;64476;55.004;73.342;2023-05-20T08:39:03;19.88;;;4.53;;
69736;SDS011;64476;55.004;73.342;2023-05-20T08:42:05;18.25;;;4.18;;
69736;SDS011;64476;55.004;73.342;2023-05-20T08:45:09;45.33;;;5.87;;
69736;SDS011;64476;55.004;73.342;2023-05-20T08:48:13;152.95;;;10.55;;
69736;SDS011;64476;55.004;73.342;2023-05-20T08:51:19;18.58;;;3.97;;
69736;SDS011;64476;55.004;73.342;2023-05-20T08:54:23;17.58;;;4.82;;
69736;SDS011;64476;55.004;73.342;2023-05-20T08:57:28;30.23;;;4.55;;
69736;SDS011;64476;55.004;73.342;2023-05-20T09:00:30;37.92;;;5.75;;
69736;SDS011;64476;55.004;73.342;2023-05-20T09:03:32;24.73;;;4.22;;
69736;SDS011;64476;55.004;73.342;2023-05-20T09:06:43;27.05;;;4.30;;
69736;SDS011;64476;55.004;73.342;2023-05-20T09:09:47;21.25;;;4.95;;
69736;SDS011;64476;55.004;73.342;2023-05-20T09:13:26;40.70;;;6.50;;
69736;SDS011;64476;55.004;73.342;2023-05-20T09:16:32;41.93;;;5.43;;
69736;SDS011;64476;55.004;73.342;2023-05-20T09:19:39;21.58;;;4.57;;
69736;SDS011;64476;55.004;73.342;2023-05-20T09:22:41;24.15;;;4.82;;
69736;SDS011;64476;55.004;73.342;2023-05-20T09:25:43;20.42;;;3.80;;
69736;SDS011;64476;55.004;73.342;2023-05-20T09:28:45;20.85;;;5.15;;
69736;SDS011;64476;55.004;73.342;2023-05-20T09:31:47;12.10;;;3.55;;
69736;SDS011;64476;55.004;73.342;2023-05-20T09:34:50;19.83;;;3.58;;
69736;SDS011;64476;55.004;73.342;2023-05-20T09:37:53;18.67;;;3.58;;
69736;SDS011;64476;55.004;73.342;2023-05-20T09:40:56;24.70;;;4.15;;
69736;SDS011;64476;55.004;73.342;2023-05-20T09:44:01;50.28;;;4.80;;
69736;SDS011;64476;55.004;73.342;2023-05-20T09:47:15;30.52;;;4.60;;
69736;SDS011;64476;55.004;73.342;2023-05-20T09:53:21;30.58;;;4.35;;
69736;SDS011;64476;55.004;73.342;2023-05-20T09:56:27;38.05;;;4.20;;
69736;SDS011;64476;55.004;73.342;2023-05-20T09:59:30;27.63;;;3.40;;
69736;SDS011;64476;55.004;73.342;2023-05-20T10:02:34;9.02;;;3.10;;
69736;SDS011;64476;55.004;73.342;2023-05-20T10:05:39;16.35;;;3.05;;
69736;SDS011;64476;55.004;73.342;2023-05-20T10:09:29;22.92;;;3.85;;
69736;SDS011;64476;55.004;73.342;2023-05-20T10:19:47;15.55;;;3.58;;
69736;SDS011;64476;55.004;73.342;2023-05-20T10:22:54;81.90;;;6.25;;
69736;SDS011;64476;55.004;73.342;2023-05-20T10:26:33;32.53;;;4.57;;
69736;SDS011;64476;55.004;73.342;2023-05-20T10:29:49;12.77;;;4.07;;
69736;SDS011;64476;55.004;73.342;2023-05-20T10:32:53;16.40;;;4.80;;
69736;SDS011;64476;55.004;73.342;2023-05-20T10:35:57;22.92;;;4.10;;
69736;SDS011;64476;55.004;73.342;2023-05-20T10:39:00;24.00;;;3.83;;
69736;SDS011;64476;55.004;73.342;2023-05-20T10:42:09;10.88;;;3.92;;
69736;SDS011;64476;55.004;73.342;2023-05-20T10:45:23;21.10;;;4.00;;
69736;SDS011;64476;55.004;73.342;2023-05-20T10:48:55;9.65;;;3.60;;
69736;SDS011;64476;55.004;73.342;2023-05-20T10:51:58;15.20;;;3.20;;
69736;SDS011;64476;55.004;73.342;2023-05-20T10:55:01;19.15;;;3.78;;
69736;SDS011;64476;55.004;73.342;2023-05-20T10:58:41;11.75;;;3.22;;
69736;SDS011;64476;55.004;73.342;2023-05-20T11:01:51;7.25;;;3.20;;
69736;SDS011;64476;55.004;73.342;2023-05-20T11:08:01;18.05;;;4.53;;
69736;SDS011;64476;55.004;73.342;2023-05-20T11:11:04;12.48;;;3.47;;
69736;SDS011;64476;55.004;73.342;2023-05-20T11:14:06;10.40;;;3.45;;
69736;SDS011;64476;55.004;73.342;2023-05-20T11:17:15;15.98;;;3.13;;
69736;SDS011;64476;55.004;73.342;2023-05-20T11:20:17;10.57;;;3.17;;
69736;SDS011;64476;55.004;73.342;2023-05-20T11:23:19;8.07;;;3.00;;
69736;SDS011;64476;55.004;73.342;2023-05-20T11:26:23;20.05;;;3.95;;
69736;SDS011;64476;55.004;73.342;2023-05-20T11:29:30;13.50;;;3.33;;
69736;SDS011;64476;55.004;73.342;2023-05-20T11:32:32;11.33;;;3.77;;
69736;SDS011;64476;55.004;73.342;2023-05-20T11:35:34;14.20;;;3.55;;
69736;SDS011;64476;55.004;73.342;2023-05-20T11:38:35;8.80;;;2.42;;
69736;SDS011;64476;55.004;73.342;2023-05-20T11:41:38;7.33;;;2.70;;
69736;SDS011;64476;55.004;73.342;2023-05-20T11:44:42;17.65;;;3.70;;
69736;SDS011;64476;55.004;73.342;2023-05-20T11:47:58;13.98;;;4.85;;
69736;SDS011;64476;55.004;73.342;2023-05-20T11:51:03;16.90;;;4.05;;
69736;SDS011;64476;55.004;73.342;2023-05-20T11:54:08;25.50;;;4.05;;
69736;SDS011;64476;55.004;73.342;2023-05-20T11:57:10;12.33;;;3.60;;
69736;SDS011;64476;55.004;73.342;2023-05-20T12:00:12;14.55;;;3.00;;
69736;SDS011;64476;55.004;73.342;2023-05-20T12:03:14;14.55;;;4.60;;
69736;SDS011;64476;55.004;73.342;2023-05-20T12:06:16;14.65;;;4.63;;
69736;SDS011;64476;55.004;73.342;2023-05-20T12:09:22;25.42;;;4.40;;
69736;SDS011;64476;55.004;73.342;2023-05-20T12:12:24;20.95;;;3.20;;
69736;SDS011;64476;55.004;73.342;2023-05-20T12:15:26;123.17;;;7.20;;
69736;SDS011;64476;55.004;73.342;2023-05-20T12:18:30;12.75;;;3.03;;
69736;SDS011;64476;55.004;73.342;2023-05-20T12:21:33;12.35;;;3.30;;
69736;SDS011;64476;55.004;73.342;2023-05-20T12:24:34;11.90;;;3.50;;
69736;SDS011;64476;55.004;73.342;2023-05-20T12:27:36;15.32;;;4.57;;
69736;SDS011;64476;55.004;73.342;2023-05-20T12:30:38;14.10;;;4.30;;
69736;SDS011;64476;55.004;73.342;2023-05-20T12:33:41;13.80;;;5.60;;
69736;SDS011;64476;55.004;73.342;2023-05-20T12:36:45;20.33;;;4.40;;
69736;SDS011;64476;55.004;73.342;2023-05-20T12:39:48;8.52;;;4.20;;
69736;SDS011;64476;55.004;73.342;2023-05-20T12:42:50;24.77;;;5.85;;
69736;SDS011;64476;55.004;73.342;2023-05-20T12:45:53;19.08;;;6.30;;
69736;SDS011;64476;55.004;73.342;2023-05-20T12:49:00;22.40;;;7.10;;
69736;SDS011;64476;55.004;73.342;2023-05-20T12:52:06;17.17;;;5.07;;
69736;SDS011;64476;55.004;73.342;2023-05-20T12:55:07;22.15;;;6.22;;
69736;SDS011;64476;55.004;73.342;2023-05-20T12:58:15;23.30;;;3.17;;
69736;SDS011;64476;55.004;73.342;2023-05-20T13:01:17;27.10;;;3.97;;
69736;SDS011;64476;55.004;73.342;2023-05-20T13:04:22;15.68;;;3.83;;
69736;SDS011;64476;55.004;73.342;2023-05-20T13:07:24;15.20;;;3.47;;
69736;SDS011;64476;55.004;73.342;2023-05-20T13:10:27;7.60;;;3.40;;
69736;SDS011;64476;55.004;73.342;2023-05-20T13:13:29;21.40;;;4.43;;
69736;SDS011;64476;55.004;73.342;2023-05-20T13:16:31;8.05;;;3.80;;
69736;SDS011;64476;55.004;73.342;2023-05-20T13:19:35;24.33;;;5.90;;
69736;SDS011;64476;55.004;73.342;2023-05-20T13:22:40;10.63;;;4.38;;
69736;SDS011;64476;55.004;73.342;2023-05-20T13:25:42;6.82;;;3.63;;
69736;SDS011;64476;55.004;73.342;2023-05-20T13:28:53;12.10;;;3.90;;
69736;SDS011;64476;55.004;73.342;2023-05-20T13:31:55;14.55;;;4.13;;
69736;SDS011;64476;55.004;73.342;2023-05-20T13:34:56;15.15;;;6.65;;
69736;SDS011;64476;55.004;73.342;2023-05-20T13:38:02;16.98;;;5.22;;
69736;SDS011;64476;55.004;73.342;2023-05-20T13:41:04;19.55;;;7.15;;
69736;SDS011;64476;55.004;73.342;2023-05-20T13:44:07;16.10;;;7.30;;
69736;SDS011;64476;55.004;73.342;2023-05-20T13:47:09;24.47;;;7.20;;
69736;SDS011;64476;55.004;73.342;2023-05-20T13:50:11;18.83;;;8.68;;
69736;SDS011;64476;55.004;73.342;2023-05-20T13:53:13;28.52;;;7.35;;
69736;SDS011;64476;55.004;73.342;2023-05-20T13:56:15;21.83;;;5.97;;
69736;SDS011;64476;55.004;73.342;2023-05-20T13:59:22;23.10;;;7.65;;
69736;SDS011;64476;55.004;73.342;2023-05-20T14:02:24;17.20;;;5.82;;
69736;SDS011;64476;55.004;73.342;2023-05-20T14:05:27;19.85;;;5.93;;
69736;SDS011;64476;55.004;73.342;2023-05-20T14:08:28;20.50;;;5.53;;
69736;SDS011;64476;55.004;73.342;2023-05-20T14:11:30;44.75;;;6.32;;
69736;SDS011;64476;55.004;73.342;2023-05-20T14:14:32;16.47;;;5.17;;
69736;SDS011;64476;55.004;73.342;2023-05-20T14:17:34;22.52;;;5.55;;
69736;SDS011;64476;55.004;73.342;2023-05-20T14:20:36;12.27;;;5.23;;
69736;SDS011;64476;55.004;73.342;2023-05-20T14:23:39;18.98;;;6.15;;
69736;SDS011;64476;55.004;73.342;2023-05-20T14:26:45;12.82;;;5.82;;
69736;SDS011;64476;55.004;73.342;2023-05-20T14:29:46;22.75;;;7.25;;
69736;SDS011;64476;55.004;73.342;2023-05-20T14:32:49;23.00;;;8.13;;
69736;SDS011;64476;55.004;73.342;2023-05-20T14:35:51;17.25;;;8.00;;
69736;SDS011;64476;55.004;73.342;2023-05-20T14:38:52;18.05;;;8.38;;
69736;SDS011;64476;55.004;73.342;2023-05-20T14:41:56;41.85;;;9.38;;
69736;SDS011;64476;55.004;73.342;2023-05-20T14:45:31;19.40;;;10.30;;
69736;SDS011;64476;55.004;73.342;2023-05-20T14:48:32;41.15;;;10.98;;
69736;SDS011;64476;55.004;73.342;2023-05-20T14:51:34;36.83;;;13.02;;
69736;SDS011;64476;55.004;73.342;2023-05-20T14:54:38;40.70;;;14.77;;
69736;SDS011;64476;55.004;73.342;2023-05-20T15:01:24;28.70;;;13.53;;
69736;SDS011;64476;55.004;73.342;2023-05-20T15:04:26;30.30;;;10.03;;
69736;SDS011;64476;55.004;73.342;2023-05-20T15:07:28;40.92;;;10.07;;
69736;SDS011;64476;55.004;73.342;2023-05-20T15:10:36;24.90;;;10.43;;
69736;SDS011;64476;55.004;73.342;2023-05-20T15:13:38;32.67;;;10.52;;
69736;SDS011;64476;55.004;73.342;2023-05-20T15:16:40;51.53;;;11.33;;
69736;SDS011;64476;55.004;73.342;2023-05-20T15:19:44;34.90;;;13.77;;
69736;SDS011;64476;55.004;73.342;2023-05-20T15:22:46;34.55;;;13.80;;
69736;SDS011;64476;55.004;73.342;2023-05-20T15:25:48;41.10;;;14.63;;
69736;SDS011;64476;55.004;73.342;2023-05-20T15:28:50;52.40;;;16.60;;
69736;SDS011;64476;55.004;73.342;2023-05-20T15:31:52;27.88;;;14.60;;
69736;SDS011;64476;55.004;73.342;2023-05-20T15:34:55;35.40;;;14.50;;
69736;SDS011;64476;55.004;73.342;2023-05-20T15:37:57;51.30;;;15.30;;
69736;SDS011;64476;55.004;73.342;2023-05-20T15:40:59;31.88;;;16.40;;
69736;SDS011;64476;55.004;73.342;2023-05-20T15:44:00;35.13;;;15.57;;
69736;SDS011;64476;55.004;73.342;2023-05-20T15:47:03;63.00;;;27.95;;
69736;SDS011;64476;55.004;73.342;2023-05-20T15:53:10;66.73;;;28.13;;
69736;SDS011;64476;55.004;73.342;2023-05-20T15:56:12;82.10;;;29.73;;
69736;SDS011;64476;55.004;73.342;2023-05-20T15:59:25;69.80;;;29.13;;
69736;SDS011;64476;55.004;73.342;2023-05-20T16:02:26;86.90;;;31.05;;
69736;SDS011;64476;55.004;73.342;2023-05-20T16:05:30;92.93;;;31.60;;
69736;SDS011;64476;55.004;73.342;2023-05-20T16:08:32;97.55;;;33.78;;
69736;SDS011;64476;55.004;73.342;2023-05-20T16:11:37;92.55;;;37.80;;
69736;SDS011;64476;55.004;73.342;2023-05-20T16:14:40;91.30;;;34.10;;
69736;SDS011;64476;55.004;73.342;2023-05-20T16:17:42;91.47;;;39.33;;
69736;SDS011;64476;55.004;73.342;2023-05-20T16:24:22;112.70;;;41.00;;
69736;SDS011;64476;55.004;73.342;2023-05-20T16:27:25;94.47;;;37.10;;
69736;SDS011;64476;55.004;73.342;2023-05-20T16:30:26;63.47;;;31.83;;
69736;SDS011;64476;55.004;73.342;2023-05-20T16:33:28;83.53;;;31.25;;
69736;SDS011;64476;55.004;73.342;2023-05-20T16:36:30;57.97;;;28.60;;
69736;SDS011;64476;55.004;73.342;2023-05-20T16:39:32;62.85;;;27.67;;
69736;SDS011;64476;55.004;73.342;2023-05-20T16:42:33;74.35;;;30.30;;
69736;SDS011;64476;55.004;73.342;2023-05-20T16:45:35;78.18;;;28.35;;
69736;SDS011;64476;55.004;73.342;2023-05-20T16:48:37;60.78;;;26.17;;
69736;SDS011;64476;55.004;73.342;2023-05-20T16:51:39;65.15;;;27.23;;
69736;SDS011;64476;55.004;73.342;2023-05-20T16:54:41;80.60;;;29.38;;
69736;SDS011;64476;55.004;73.342;2023-05-20T16:57:42;57.28;;;27.27;;
69736;SDS011;64476;55.004;73.342;2023-05-20T17:00:44;57.58;;;26.80;;
69736;SDS011;64476;55.004;73.342;2023-05-20T17:03:46;47.40;;;21.65;;
69736;SDS011;64476;55.004;73.342;2023-05-20T17:06:48;38.63;;;19.47;;
69736;SDS011;64476;55.004;73.342;2023-05-20T17:09:50;44.87;;;18.00;;
69736;SDS011;64476;55.004;73.342;2023-05-20T17:12:52;40.60;;;18.70;;
69736;SDS011;64476;55.004;73.342;2023-05-20T17:15:53;43.15;;;18.17;;
69736;SDS011;64476;55.004;73.342;2023-05-20T17:18:55;63.72;;;17.05;;
69736;SDS011;64476;55.004;73.342;2023-05-20T17:21:58;39.30;;;17.43;;
69736;SDS011;64476;55.004;73.342;2023-05-20T17:25:04;48.50;;;17.27;;
69736;SDS011;64476;55.004;73.342;2023-05-20T17:28:06;41.40;;;18.30;;
69736;SDS011;64476;55.004;73.342;2023-05-20T17:31:08;56.83;;;18.20;;
69736;SDS011;64476;55.004;73.342;2023-05-20T17:34:11;37.72;;;17.67;;
69736;SDS011;64476;55.004;73.342;2023-05-20T17:37:18;46.03;;;17.35;;
69736;SDS011;64476;55.004;73.342;2023-05-20T17:40:24;47.75;;;17.45;;
69736;SDS011;64476;55.004;73.342;2023-05-20T17:43:29;44.70;;;18.40;;
69736;SDS011;64476;55.004;73.342;2023-05-20T17:46:31;50.08;;;19.38;;
69736;SDS011;64476;55.004;73.342;2023-05-20T17:49:34;45.50;;;19.60;;
69736;SDS011;64476;55.004;73.342;2023-05-20T17:52:37;37.92;;;17.88;;
69736;SDS011;64476;55.004;73.342;2023-05-20T17:55:40;40.28;;;17.40;;
69736;SDS011;64476;55.004;73.342;2023-05-20T17:58:42;57.53;;;17.85;;
69736;SDS011;64476;55.004;73.342;2023-05-20T18:01:45;63.65;;;17.17;;
69736;SDS011;64476;55.004;73.342;2023-05-20T18:04:46;42.65;;;15.75;;
69736;SDS011;64476;55.004;73.342;2023-05-20T18:07:48;39.47;;;13.50;;
69736;SDS011;64476;55.004;73.342;2023-05-20T18:10:50;28.02;;;12.20;;
69736;SDS011;64476;55.004;73.342;2023-05-20T18:13:59;31.30;;;12.83;;
69736;SDS011;64476;55.004;73.342;2023-05-20T18:17:02;24.50;;;12.02;;
69736;SDS011;64476;55.004;73.342;2023-05-20T18:20:04;30.25;;;12.30;;
69736;SDS011;64476;55.004;73.342;2023-05-20T18:23:06;24.73;;;15.02;;
69736;SDS011;64476;55.004;73.342;2023-05-20T18:26:07;48.90;;;17.10;;
69736;SDS011;64476;55.004;73.342;2023-05-20T18:29:09;33.75;;;15.73;;
69736;SDS011;64476;55.004;73.342;2023-05-20T18:32:12;43.53;;;15.98;;
69736;SDS011;64476;55.004;73.342;2023-05-20T18:35:14;33.33;;;15.10;;
69736;SDS011;64476;55.004;73.342;2023-05-20T18:38:17;37.95;;;15.13;;
69736;SDS011;64476;55.004;73.342;2023-05-20T18:41:21;32.50;;;15.77;;
69736;SDS011;64476;55.004;73.342;2023-05-20T18:44:23;44.63;;;17.17;;